sensor_id;sensor_type;location;lat;lon;timestamp;P1;durP1;ratioP1;P2;durP2;ratioP2
32445;SDS011;18899;50.748;7.102;2023-04-03T00:01:15;7.00;;;1.83;;
32445;SDS011;18899;50.748;7.102;2023-04-03T00:03:41;4.00;;;1.80;;
32445;SDS011;18899;50.748;7.102;2023-04-03T00:06:08;3.35;;;1.70;;
32445;SDS011;18899;50.748;7.102;2023-04-03T00:08:36;4.78;;;2.08;;
32445;SDS011;18899;50.748;7.102;2023-04-03T00:11:02;5.10;;;1.90;;
32445;SDS011;18899;50.748;7.102;2023-04-03T00:13:28;5.20;;;2.05;;
32445;SDS011;18899;50.748;7.102;2023-04-03T00:15:54;4.60;;;1.55;;
32445;SDS011;18899;50.748;7.102;2023-04-03T00:18:20;4.97;;;1.40;;
32445;SDS011;18899;50.748;7.102;2023-04-03T00:20:46;4.20;;;2.17;;
32445;SDS011;18899;50.748;7.102;2023-04-03T00:23:12;4.93;;;1.85;;
32445;SDS011;18899;50.748;7.102;2023-04-03T00:25:38;5.22;;;1.95;;
32445;SDS011;18899;50.748;7.102;2023-04-03T00:28:03;7.28;;;2.22;;
32445;SDS011;18899;50.748;7.102;2023-04-03T00:30:29;3.45;;;1.65;;
32445;SDS011;18899;50.748;7.102;2023-04-03T00:32:56;6.40;;;1.77;;
32445;SDS011;18899;50.748;7.102;2023-04-03T00:35:21;5.10;;;2.08;;
32445;SDS011;18899;50.748;7.102;2023-04-03T00:37:50;6.82;;;1.92;;
32445;SDS011;18899;50.748;7.102;2023-04-03T00:40:17;6.13;;;2.00;;
32445;SDS011;18899;50.748;7.102;2023-04-03T00:42:43;5.93;;;2.10;;
32445;SDS011;18899;50.748;7.102;2023-04-03T00:47:36;9.18;;;2.20;;
32445;SDS011;18899;50.748;7.102;2023-04-03T00:50:04;3.45;;;1.63;;
32445;SDS011;18899;50.748;7.102;2023-04-03T00:52:30;2.30;;;1.60;;
32445;SDS011;18899;50.748;7.102;2023-04-03T00:54:57;8.02;;;1.80;;
32445;SDS011;18899;50.748;7.102;2023-04-03T00:57:29;4.65;;;2.00;;
32445;SDS011;18899;50.748;7.102;2023-04-03T01:00:06;6.05;;;1.70;;
32445;SDS011;18899;50.748;7.102;2023-04-03T01:02:34;3.85;;;1.80;;
32445;SDS011;18899;50.748;7.102;2023-04-03T01:05:00;3.88;;;1.92;;
32445;SDS011;18899;50.748;7.102;2023-04-03T01:07:27;4.93;;;2.10;;
32445;SDS011;18899;50.748;7.102;2023-04-03T01:09:58;8.07;;;2.00;;
32445;SDS011;18899;50.748;7.102;2023-04-03T01:12:31;4.70;;;2.00;;
32445;SDS011;18899;50.748;7.102;2023-04-03T01:15:08;9.80;;;2.35;;
32445;SDS011;18899;50.748;7.102;2023-04-03T01:17:53;3.70;;;1.83;;
32445;SDS011;18899;50.748;7.102;2023-04-03T01:25:27;6.47;;;2.40;;
32445;SDS011;18899;50.748;7.102;2023-04-03T01:27:53;5.95;;;1.95;;
32445;SDS011;18899;50.748;7.102;2023-04-03T01:30:19;6.85;;;2.00;;
32445;SDS011;18899;50.748;7.102;2023-04-03T01:32:48;5.15;;;1.85;;
32445;SDS011;18899;50.748;7.102;2023-04-03T01:35:14;4.38;;;1.67;;
32445;SDS011;18899;50.748;7.102;2023-04-03T01:37:39;3.33;;;1.90;;
32445;SDS011;18899;50.748;7.102;2023-04-03T01:40:05;5.88;;;1.65;;
32445;SDS011;18899;50.748;7.102;2023-04-03T01:42:31;4.70;;;1.70;;
32445;SDS011;18899;50.748;7.102;2023-04-03T01:44:57;6.20;;;1.83;;
32445;SDS011;18899;50.748;7.102;2023-04-03T01:47:22;3.28;;;1.75;;
32445;SDS011;18899;50.748;7.102;2023-04-03T01:49:48;9.70;;;2.08;;
32445;SDS011;18899;50.748;7.102;2023-04-03T01:52:13;4.45;;;1.85;;
32445;SDS011;18899;50.748;7.102;2023-04-03T01:54:39;3.83;;;1.80;;
32445;SDS011;18899;50.748;7.102;2023-04-03T01:57:04;8.27;;;1.98;;
32445;SDS011;18899;50.748;7.102;2023-04-03T01:59:30;5.38;;;2.40;;
32445;SDS011;18899;50.748;7.102;2023-04-03T02:01:56;5.53;;;1.77;;
32445;SDS011;18899;50.748;7.102;2023-04-03T02:04:21;5.30;;;1.60;;
32445;SDS011;18899;50.748;7.102;2023-04-03T02:06:47;9.68;;;1.85;;
32445;SDS011;18899;50.748;7.102;2023-04-03T02:09:13;6.95;;;2.33;;
32445;SDS011;18899;50.748;7.102;2023-04-03T02:11:38;2.70;;;1.80;;
32445;SDS011;18899;50.748;7.102;2023-04-03T02:14:04;3.70;;;1.70;;
32445;SDS011;18899;50.748;7.102;2023-04-03T02:16:29;4.97;;;2.05;;
32445;SDS011;18899;50.748;7.102;2023-04-03T02:18:55;3.75;;;2.03;;
32445;SDS011;18899;50.748;7.102;2023-04-03T02:21:21;4.13;;;2.00;;
32445;SDS011;18899;50.748;7.102;2023-04-03T02:23:46;6.85;;;2.05;;
32445;SDS011;18899;50.748;7.102;2023-04-03T02:26:13;6.63;;;2.05;;
32445;SDS011;18899;50.748;7.102;2023-04-03T02:28:40;4.25;;;2.03;;
32445;SDS011;18899;50.748;7.102;2023-04-03T02:31:06;4.18;;;1.88;;
32445;SDS011;18899;50.748;7.102;2023-04-03T02:33:33;6.13;;;1.80;;
32445;SDS011;18899;50.748;7.102;2023-04-03T02:36:01;4.57;;;1.85;;
32445;SDS011;18899;50.748;7.102;2023-04-03T02:38:27;7.22;;;2.40;;
32445;SDS011;18899;50.748;7.102;2023-04-03T02:40:53;3.55;;;1.90;;
32445;SDS011;18899;50.748;7.102;2023-04-03T02:43:24;6.32;;;2.10;;
32445;SDS011;18899;50.748;7.102;2023-04-03T02:45:49;6.55;;;2.15;;
32445;SDS011;18899;50.748;7.102;2023-04-03T02:48:15;6.82;;;1.98;;
32445;SDS011;18899;50.748;7.102;2023-04-03T02:50:41;4.57;;;1.92;;
32445;SDS011;18899;50.748;7.102;2023-04-03T02:53:07;5.80;;;2.13;;
32445;SDS011;18899;50.748;7.102;2023-04-03T02:55:32;5.55;;;1.85;;
32445;SDS011;18899;50.748;7.102;2023-04-03T02:57:58;5.25;;;2.30;;
32445;SDS011;18899;50.748;7.102;2023-04-03T03:00:23;5.80;;;2.15;;
32445;SDS011;18899;50.748;7.102;2023-04-03T03:02:49;6.13;;;2.05;;
32445;SDS011;18899;50.748;7.102;2023-04-03T03:05:14;5.80;;;2.30;;
32445;SDS011;18899;50.748;7.102;2023-04-03T03:07:40;7.18;;;2.30;;
32445;SDS011;18899;50.748;7.102;2023-04-03T03:10:06;7.82;;;2.30;;
32445;SDS011;18899;50.748;7.102;2023-04-03T03:12:31;6.05;;;2.38;;
32445;SDS011;18899;50.748;7.102;2023-04-03T03:14:57;6.10;;;2.22;;
32445;SDS011;18899;50.748;7.102;2023-04-03T03:17:22;6.60;;;2.25;;
32445;SDS011;18899;50.748;7.102;2023-04-03T03:19:48;4.63;;;2.08;;
32445;SDS011;18899;50.748;7.102;2023-04-03T03:22:13;6.25;;;2.28;;
32445;SDS011;18899;50.748;7.102;2023-04-03T03:24:39;4.45;;;1.83;;
32445;SDS011;18899;50.748;7.102;2023-04-03T03:27:05;5.68;;;2.45;;
32445;SDS011;18899;50.748;7.102;2023-04-03T03:29:30;3.53;;;1.77;;
32445;SDS011;18899;50.748;7.102;2023-04-03T03:31:56;3.58;;;1.73;;
32445;SDS011;18899;50.748;7.102;2023-04-03T03:34:21;7.80;;;2.20;;
32445;SDS011;18899;50.748;7.102;2023-04-03T03:36:47;5.80;;;2.10;;
32445;SDS011;18899;50.748;7.102;2023-04-03T03:39:12;8.10;;;2.00;;
32445;SDS011;18899;50.748;7.102;2023-04-03T03:41:38;4.03;;;2.00;;
32445;SDS011;18899;50.748;7.102;2023-04-03T03:44:03;5.28;;;2.03;;
32445;SDS011;18899;50.748;7.102;2023-04-03T03:46:29;7.43;;;2.33;;
32445;SDS011;18899;50.748;7.102;2023-04-03T03:48:54;3.17;;;1.92;;
32445;SDS011;18899;50.748;7.102;2023-04-03T03:51:20;5.20;;;2.15;;
32445;SDS011;18899;50.748;7.102;2023-04-03T03:53:46;6.18;;;2.60;;
32445;SDS011;18899;50.748;7.102;2023-04-03T03:56:11;10.20;;;2.58;;
32445;SDS011;18899;50.748;7.102;2023-04-03T03:58:37;4.38;;;2.25;;
32445;SDS011;18899;50.748;7.102;2023-04-03T04:01:06;4.72;;;1.90;;
32445;SDS011;18899;50.748;7.102;2023-04-03T04:03:32;4.20;;;1.98;;
32445;SDS011;18899;50.748;7.102;2023-04-03T04:05:58;3.47;;;2.10;;
32445;SDS011;18899;50.748;7.102;2023-04-03T04:08:23;5.45;;;2.30;;
32445;SDS011;18899;50.748;7.102;2023-04-03T04:10:49;6.28;;;2.30;;
32445;SDS011;18899;50.748;7.102;2023-04-03T04:13:15;4.80;;;2.15;;
32445;SDS011;18899;50.748;7.102;2023-04-03T04:15:41;7.75;;;2.22;;
32445;SDS011;18899;50.748;7.102;2023-04-03T04:18:07;7.90;;;2.53;;
32445;SDS011;18899;50.748;7.102;2023-04-03T04:20:33;3.72;;;2.25;;
32445;SDS011;18899;50.748;7.102;2023-04-03T04:22:58;8.98;;;2.50;;
32445;SDS011;18899;50.748;7.102;2023-04-03T04:25:24;4.35;;;2.03;;
32445;SDS011;18899;50.748;7.102;2023-04-03T04:27:49;4.95;;;2.45;;
32445;SDS011;18899;50.748;7.102;2023-04-03T04:30:15;5.85;;;2.33;;
32445;SDS011;18899;50.748;7.102;2023-04-03T04:32:40;5.03;;;2.55;;
32445;SDS011;18899;50.748;7.102;2023-04-03T04:35:06;7.18;;;2.47;;
32445;SDS011;18899;50.748;7.102;2023-04-03T04:37:32;9.95;;;2.25;;
32445;SDS011;18899;50.748;7.102;2023-04-03T04:39:58;8.25;;;2.38;;
32445;SDS011;18899;50.748;7.102;2023-04-03T04:42:23;8.75;;;1.90;;
32445;SDS011;18899;50.748;7.102;2023-04-03T04:44:49;6.63;;;3.00;;
32445;SDS011;18899;50.748;7.102;2023-04-03T04:47:15;4.13;;;2.17;;
32445;SDS011;18899;50.748;7.102;2023-04-03T04:49:41;8.38;;;2.10;;
32445;SDS011;18899;50.748;7.102;2023-04-03T04:52:07;8.82;;;2.20;;
32445;SDS011;18899;50.748;7.102;2023-04-03T04:54:32;6.18;;;2.28;;
32445;SDS011;18899;50.748;7.102;2023-04-03T04:56:58;6.88;;;2.45;;
32445;SDS011;18899;50.748;7.102;2023-04-03T04:59:23;6.03;;;2.28;;
32445;SDS011;18899;50.748;7.102;2023-04-03T05:01:49;4.75;;;2.40;;
32445;SDS011;18899;50.748;7.102;2023-04-03T05:04:14;3.92;;;1.85;;
32445;SDS011;18899;50.748;7.102;2023-04-03T05:06:40;6.30;;;2.22;;
32445;SDS011;18899;50.748;7.102;2023-04-03T05:09:06;5.75;;;1.92;;
32445;SDS011;18899;50.748;7.102;2023-04-03T05:11:31;4.40;;;2.10;;
32445;SDS011;18899;50.748;7.102;2023-04-03T05:13:57;5.07;;;2.03;;
32445;SDS011;18899;50.748;7.102;2023-04-03T05:16:23;11.30;;;2.95;;
32445;SDS011;18899;50.748;7.102;2023-04-03T05:18:48;5.72;;;1.85;;
32445;SDS011;18899;50.748;7.102;2023-04-03T05:21:14;7.43;;;1.92;;
32445;SDS011;18899;50.748;7.102;2023-04-03T05:23:39;8.00;;;2.35;;
32445;SDS011;18899;50.748;7.102;2023-04-03T05:26:05;7.53;;;2.25;;
32445;SDS011;18899;50.748;7.102;2023-04-03T05:28:31;9.10;;;2.40;;
32445;SDS011;18899;50.748;7.102;2023-04-03T05:30:57;4.18;;;2.00;;
32445;SDS011;18899;50.748;7.102;2023-04-03T05:33:23;5.15;;;2.30;;
32445;SDS011;18899;50.748;7.102;2023-04-03T05:35:51;4.38;;;1.98;;
32445;SDS011;18899;50.748;7.102;2023-04-03T05:38:17;9.88;;;2.10;;
32445;SDS011;18899;50.748;7.102;2023-04-03T05:40:42;5.10;;;2.08;;
32445;SDS011;18899;50.748;7.102;2023-04-03T05:43:08;9.88;;;2.50;;
32445;SDS011;18899;50.748;7.102;2023-04-03T05:45:33;7.90;;;2.45;;
32445;SDS011;18899;50.748;7.102;2023-04-03T05:47:59;8.32;;;2.17;;
32445;SDS011;18899;50.748;7.102;2023-04-03T05:50:25;6.97;;;2.10;;
32445;SDS011;18899;50.748;7.102;2023-04-03T05:52:50;5.47;;;2.28;;
32445;SDS011;18899;50.748;7.102;2023-04-03T05:55:19;10.35;;;2.40;;
32445;SDS011;18899;50.748;7.102;2023-04-03T05:57:45;4.63;;;1.83;;
32445;SDS011;18899;50.748;7.102;2023-04-03T06:00:12;9.45;;;2.00;;
32445;SDS011;18899;50.748;7.102;2023-04-03T06:02:40;5.90;;;2.08;;
32445;SDS011;18899;50.748;7.102;2023-04-03T06:05:06;7.40;;;2.33;;
32445;SDS011;18899;50.748;7.102;2023-04-03T06:07:33;5.80;;;1.95;;
32445;SDS011;18899;50.748;7.102;2023-04-03T06:09:59;11.65;;;2.50;;
32445;SDS011;18899;50.748;7.102;2023-04-03T06:12:26;4.78;;;2.03;;
32445;SDS011;18899;50.748;7.102;2023-04-03T06:14:53;9.43;;;2.25;;
32445;SDS011;18899;50.748;7.102;2023-04-03T06:17:19;8.43;;;2.40;;
32445;SDS011;18899;50.748;7.102;2023-04-03T06:19:45;9.05;;;2.22;;
32445;SDS011;18899;50.748;7.102;2023-04-03T06:22:10;6.18;;;2.40;;
32445;SDS011;18899;50.748;7.102;2023-04-03T06:24:37;9.80;;;2.53;;
32445;SDS011;18899;50.748;7.102;2023-04-03T06:27:03;11.38;;;1.98;;
32445;SDS011;18899;50.748;7.102;2023-04-03T06:29:29;5.70;;;1.80;;
32445;SDS011;18899;50.748;7.102;2023-04-03T06:31:55;8.20;;;1.90;;
32445;SDS011;18899;50.748;7.102;2023-04-03T06:34:20;7.90;;;1.50;;
32445;SDS011;18899;50.748;7.102;2023-04-03T06:36:46;5.38;;;1.45;;
32445;SDS011;18899;50.748;7.102;2023-04-03T06:39:15;5.72;;;1.52;;
32445;SDS011;18899;50.748;7.102;2023-04-03T06:41:45;3.65;;;1.27;;
32445;SDS011;18899;50.748;7.102;2023-04-03T06:44:10;7.35;;;1.65;;
32445;SDS011;18899;50.748;7.102;2023-04-03T06:46:38;5.57;;;1.23;;
32445;SDS011;18899;50.748;7.102;2023-04-03T06:49:04;3.78;;;1.55;;
32445;SDS011;18899;50.748;7.102;2023-04-03T06:51:32;4.68;;;2.05;;
32445;SDS011;18899;50.748;7.102;2023-04-03T06:53:58;5.90;;;1.52;;
32445;SDS011;18899;50.748;7.102;2023-04-03T06:56:25;4.20;;;1.38;;
32445;SDS011;18899;50.748;7.102;2023-04-03T06:58:51;4.75;;;1.52;;
32445;SDS011;18899;50.748;7.102;2023-04-03T07:01:19;4.97;;;1.30;;
32445;SDS011;18899;50.748;7.102;2023-04-03T07:03:46;4.30;;;1.25;;
32445;SDS011;18899;50.748;7.102;2023-04-03T07:06:13;7.75;;;1.63;;
32445;SDS011;18899;50.748;7.102;2023-04-03T07:08:40;4.47;;;1.20;;
32445;SDS011;18899;50.748;7.102;2023-04-03T07:11:07;4.55;;;1.25;;
32445;SDS011;18899;50.748;7.102;2023-04-03T07:13:33;4.80;;;1.13;;
32445;SDS011;18899;50.748;7.102;2023-04-03T07:15:59;4.25;;;1.20;;
32445;SDS011;18899;50.748;7.102;2023-04-03T07:18:25;6.10;;;1.40;;
32445;SDS011;18899;50.748;7.102;2023-04-03T07:20:51;4.65;;;1.33;;
32445;SDS011;18899;50.748;7.102;2023-04-03T07:23:17;6.60;;;1.60;;
32445;SDS011;18899;50.748;7.102;2023-04-03T07:25:46;6.13;;;1.30;;
32445;SDS011;18899;50.748;7.102;2023-04-03T07:28:14;4.17;;;1.30;;
32445;SDS011;18899;50.748;7.102;2023-04-03T07:30:47;4.32;;;1.00;;
32445;SDS011;18899;50.748;7.102;2023-04-03T07:33:15;3.10;;;1.38;;
32445;SDS011;18899;50.748;7.102;2023-04-03T07:35:42;4.07;;;1.27;;
32445;SDS011;18899;50.748;7.102;2023-04-03T07:38:08;3.65;;;1.00;;
32445;SDS011;18899;50.748;7.102;2023-04-03T07:40:34;4.72;;;1.27;;
32445;SDS011;18899;50.748;7.102;2023-04-03T07:43:01;17.92;;;1.40;;
32445;SDS011;18899;50.748;7.102;2023-04-03T07:45:27;6.82;;;1.10;;
32445;SDS011;18899;50.748;7.102;2023-04-03T07:47:53;3.88;;;1.10;;
32445;SDS011;18899;50.748;7.102;2023-04-03T07:50:18;5.03;;;1.30;;
32445;SDS011;18899;50.748;7.102;2023-04-03T07:52:44;4.75;;;1.27;;
32445;SDS011;18899;50.748;7.102;2023-04-03T07:55:11;4.20;;;1.40;;
32445;SDS011;18899;50.748;7.102;2023-04-03T07:57:36;4.05;;;1.35;;
32445;SDS011;18899;50.748;7.102;2023-04-03T08:00:05;5.30;;;1.50;;
32445;SDS011;18899;50.748;7.102;2023-04-03T08:02:31;3.70;;;1.02;;
32445;SDS011;18899;50.748;7.102;2023-04-03T08:04:57;2.60;;;1.00;;
32445;SDS011;18899;50.748;7.102;2023-04-03T08:07:23;4.00;;;1.35;;
32445;SDS011;18899;50.748;7.102;2023-04-03T08:09:50;4.55;;;1.35;;
32445;SDS011;18899;50.748;7.102;2023-04-03T08:12:15;6.40;;;1.20;;
32445;SDS011;18899;50.748;7.102;2023-04-03T08:14:41;5.60;;;1.08;;
32445;SDS011;18899;50.748;7.102;2023-04-03T08:17:06;3.97;;;1.10;;
32445;SDS011;18899;50.748;7.102;2023-04-03T08:19:36;6.00;;;1.23;;
32445;SDS011;18899;50.748;7.102;2023-04-03T08:22:05;5.55;;;1.42;;
32445;SDS011;18899;50.748;7.102;2023-04-03T08:24:31;6.03;;;1.35;;
32445;SDS011;18899;50.748;7.102;2023-04-03T08:27:00;6.88;;;1.40;;
32445;SDS011;18899;50.748;7.102;2023-04-03T08:29:26;8.13;;;1.20;;
32445;SDS011;18899;50.748;7.102;2023-04-03T08:31:51;3.88;;;1.20;;
32445;SDS011;18899;50.748;7.102;2023-04-03T08:34:17;3.85;;;1.30;;
32445;SDS011;18899;50.748;7.102;2023-04-03T08:36:44;3.55;;;1.30;;
32445;SDS011;18899;50.748;7.102;2023-04-03T08:39:10;6.72;;;1.23;;
32445;SDS011;18899;50.748;7.102;2023-04-03T08:41:37;4.18;;;1.00;;
32445;SDS011;18899;50.748;7.102;2023-04-03T08:49:42;4.13;;;1.30;;
32445;SDS011;18899;50.748;7.102;2023-04-03T08:52:19;4.88;;;1.50;;
32445;SDS011;18899;50.748;7.102;2023-04-03T08:55:10;3.22;;;1.02;;
32445;SDS011;18899;50.748;7.102;2023-04-03T08:57:58;2.05;;;0.95;;
32445;SDS011;18899;50.748;7.102;2023-04-03T09:00:27;3.27;;;1.20;;
32445;SDS011;18899;50.748;7.102;2023-04-03T09:03:10;4.60;;;1.17;;
32445;SDS011;18899;50.748;7.102;2023-04-03T09:10:52;3.33;;;1.13;;
32445;SDS011;18899;50.748;7.102;2023-04-03T09:13:33;4.38;;;0.95;;
32445;SDS011;18899;50.748;7.102;2023-04-03T09:16:10;5.65;;;1.15;;
32445;SDS011;18899;50.748;7.102;2023-04-03T09:19:01;5.25;;;0.95;;
32445;SDS011;18899;50.748;7.102;2023-04-03T09:21:46;4.78;;;1.15;;
32445;SDS011;18899;50.748;7.102;2023-04-03T09:24:13;3.78;;;1.13;;
32445;SDS011;18899;50.748;7.102;2023-04-03T09:26:43;4.97;;;0.88;;
32445;SDS011;18899;50.748;7.102;2023-04-03T09:29:19;6.45;;;1.17;;
32445;SDS011;18899;50.748;7.102;2023-04-03T09:31:49;5.38;;;1.50;;
32445;SDS011;18899;50.748;7.102;2023-04-03T09:34:26;5.25;;;1.40;;
32445;SDS011;18899;50.748;7.102;2023-04-03T09:36:56;4.70;;;1.10;;
32445;SDS011;18899;50.748;7.102;2023-04-03T09:39:27;3.42;;;1.02;;
32445;SDS011;18899;50.748;7.102;2023-04-03T09:41:58;2.28;;;0.93;;
32445;SDS011;18899;50.748;7.102;2023-04-03T09:44:40;3.92;;;1.15;;
32445;SDS011;18899;50.748;7.102;2023-04-03T09:47:19;3.45;;;1.00;;
32445;SDS011;18899;50.748;7.102;2023-04-03T09:52:38;2.65;;;1.10;;
32445;SDS011;18899;50.748;7.102;2023-04-03T09:55:07;5.15;;;1.33;;
32445;SDS011;18899;50.748;7.102;2023-04-03T09:57:38;3.13;;;0.90;;
32445;SDS011;18899;50.748;7.102;2023-04-03T10:00:05;5.93;;;1.20;;
32445;SDS011;18899;50.748;7.102;2023-04-03T10:02:35;5.28;;;1.42;;
32445;SDS011;18899;50.748;7.102;2023-04-03T10:05:05;2.22;;;1.08;;
32445;SDS011;18899;50.748;7.102;2023-04-03T10:10:41;2.08;;;0.70;;
32445;SDS011;18899;50.748;7.102;2023-04-03T10:13:18;6.07;;;1.50;;
32445;SDS011;18899;50.748;7.102;2023-04-03T10:15:48;6.82;;;0.85;;
32445;SDS011;18899;50.748;7.102;2023-04-03T10:18:27;1.80;;;0.73;;
32445;SDS011;18899;50.748;7.102;2023-04-03T10:20:54;4.03;;;1.20;;
32445;SDS011;18899;50.748;7.102;2023-04-03T10:23:28;7.32;;;1.00;;
32445;SDS011;18899;50.748;7.102;2023-04-03T10:26:37;4.45;;;0.98;;
32445;SDS011;18899;50.748;7.102;2023-04-03T10:29:38;3.88;;;1.10;;
32445;SDS011;18899;50.748;7.102;2023-04-03T10:38:01;2.15;;;1.05;;
32445;SDS011;18899;50.748;7.102;2023-04-03T10:40:57;1.42;;;0.77;;
32445;SDS011;18899;50.748;7.102;2023-04-03T10:46:07;2.95;;;1.10;;
32445;SDS011;18899;50.748;7.102;2023-04-03T10:48:40;4.30;;;1.30;;
32445;SDS011;18899;50.748;7.102;2023-04-03T10:54:12;2.92;;;1.10;;
32445;SDS011;18899;50.748;7.102;2023-04-03T10:57:11;2.70;;;1.08;;
32445;SDS011;18899;50.748;7.102;2023-04-03T11:02:32;3.25;;;0.90;;
32445;SDS011;18899;50.748;7.102;2023-04-03T11:08:00;2.75;;;0.93;;
32445;SDS011;18899;50.748;7.102;2023-04-03T11:13:14;4.13;;;1.00;;
32445;SDS011;18899;50.748;7.102;2023-04-03T11:15:49;7.10;;;1.00;;
32445;SDS011;18899;50.748;7.102;2023-04-03T11:18:22;3.85;;;1.17;;
32445;SDS011;18899;50.748;7.102;2023-04-03T11:21:04;3.60;;;1.10;;
32445;SDS011;18899;50.748;7.102;2023-04-03T11:23:52;4.65;;;0.80;;
32445;SDS011;18899;50.748;7.102;2023-04-03T11:26:22;4.15;;;0.93;;
32445;SDS011;18899;50.748;7.102;2023-04-03T11:28:53;3.42;;;1.10;;
32445;SDS011;18899;50.748;7.102;2023-04-03T11:31:34;2.05;;;0.82;;
32445;SDS011;18899;50.748;7.102;2023-04-03T11:37:01;6.13;;;1.10;;
32445;SDS011;18899;50.748;7.102;2023-04-03T11:39:32;6.45;;;1.33;;
32445;SDS011;18899;50.748;7.102;2023-04-03T11:42:24;2.55;;;1.02;;
32445;SDS011;18899;50.748;7.102;2023-04-03T11:47:46;2.15;;;0.90;;
32445;SDS011;18899;50.748;7.102;2023-04-03T12:00:49;4.13;;;1.15;;
32445;SDS011;18899;50.748;7.102;2023-04-03T12:11:23;2.92;;;0.80;;
32445;SDS011;18899;50.748;7.102;2023-04-03T12:34:35;4.22;;;1.00;;
32445;SDS011;18899;50.748;7.102;2023-04-03T12:37:20;1.35;;;0.70;;
32445;SDS011;18899;50.748;7.102;2023-04-03T12:40:21;1.05;;;0.75;;
32445;SDS011;18899;50.748;7.102;2023-04-03T12:45:40;3.03;;;1.08;;
32445;SDS011;18899;50.748;7.102;2023-04-03T12:48:22;2.13;;;0.80;;
32445;SDS011;18899;50.748;7.102;2023-04-03T12:50:51;1.88;;;0.82;;
32445;SDS011;18899;50.748;7.102;2023-04-03T12:53:18;4.20;;;0.95;;
32445;SDS011;18899;50.748;7.102;2023-04-03T12:55:47;3.20;;;1.13;;
32445;SDS011;18899;50.748;7.102;2023-04-03T12:58:26;2.42;;;0.90;;
32445;SDS011;18899;50.748;7.102;2023-04-03T13:01:12;5.75;;;1.00;;
32445;SDS011;18899;50.748;7.102;2023-04-03T13:03:40;6.10;;;0.93;;
32445;SDS011;18899;50.748;7.102;2023-04-03T13:06:14;4.32;;;0.90;;
32445;SDS011;18899;50.748;7.102;2023-04-03T13:08:56;4.38;;;0.80;;
32445;SDS011;18899;50.748;7.102;2023-04-03T13:11:25;7.18;;;1.05;;
32445;SDS011;18899;50.748;7.102;2023-04-03T13:13:56;2.22;;;0.75;;
32445;SDS011;18899;50.748;7.102;2023-04-03T13:16:23;2.00;;;1.00;;
32445;SDS011;18899;50.748;7.102;2023-04-03T13:18:51;2.75;;;1.13;;
32445;SDS011;18899;50.748;7.102;2023-04-03T13:21:19;2.17;;;1.10;;
32445;SDS011;18899;50.748;7.102;2023-04-03T13:23:50;2.60;;;0.90;;
32445;SDS011;18899;50.748;7.102;2023-04-03T13:26:18;4.57;;;1.17;;
32445;SDS011;18899;50.748;7.102;2023-04-03T13:28:46;5.25;;;1.10;;
32445;SDS011;18899;50.748;7.102;2023-04-03T13:33:39;1.30;;;0.82;;
32445;SDS011;18899;50.748;7.102;2023-04-03T13:36:23;4.05;;;1.10;;
32445;SDS011;18899;50.748;7.102;2023-04-03T13:39:05;4.88;;;1.10;;
32445;SDS011;18899;50.748;7.102;2023-04-03T13:41:38;2.00;;;1.05;;
32445;SDS011;18899;50.748;7.102;2023-04-03T13:47:13;3.58;;;1.00;;
32445;SDS011;18899;50.748;7.102;2023-04-03T13:49:45;3.33;;;1.45;;
32445;SDS011;18899;50.748;7.102;2023-04-03T13:52:29;2.67;;;1.00;;
32445;SDS011;18899;50.748;7.102;2023-04-03T13:55:01;5.82;;;1.20;;
32445;SDS011;18899;50.748;7.102;2023-04-03T13:57:56;2.40;;;0.80;;
32445;SDS011;18899;50.748;7.102;2023-04-03T14:02:59;2.08;;;0.98;;
32445;SDS011;18899;50.748;7.102;2023-04-03T14:05:25;3.35;;;0.93;;
32445;SDS011;18899;50.748;7.102;2023-04-03T14:07:51;4.75;;;0.90;;
32445;SDS011;18899;50.748;7.102;2023-04-03T14:10:21;1.90;;;1.02;;
32445;SDS011;18899;50.748;7.102;2023-04-03T14:12:47;2.63;;;0.93;;
32445;SDS011;18899;50.748;7.102;2023-04-03T14:17:51;5.15;;;1.08;;
32445;SDS011;18899;50.748;7.102;2023-04-03T14:20:18;1.92;;;0.90;;
32445;SDS011;18899;50.748;7.102;2023-04-03T14:22:46;3.92;;;1.00;;
32445;SDS011;18899;50.748;7.102;2023-04-03T14:25:12;5.82;;;1.23;;
32445;SDS011;18899;50.748;7.102;2023-04-03T14:27:39;2.88;;;0.88;;
32445;SDS011;18899;50.748;7.102;2023-04-03T14:30:08;4.43;;;1.27;;
32445;SDS011;18899;50.748;7.102;2023-04-03T14:32:38;2.20;;;1.05;;
32445;SDS011;18899;50.748;7.102;2023-04-03T14:35:04;1.73;;;1.05;;
32445;SDS011;18899;50.748;7.102;2023-04-03T14:37:30;2.35;;;1.00;;
32445;SDS011;18899;50.748;7.102;2023-04-03T14:39:58;4.88;;;1.20;;
32445;SDS011;18899;50.748;7.102;2023-04-03T14:42:26;2.55;;;0.95;;
32445;SDS011;18899;50.748;7.102;2023-04-03T14:44:58;3.45;;;1.02;;
32445;SDS011;18899;50.748;7.102;2023-04-03T14:47:25;3.30;;;1.02;;
32445;SDS011;18899;50.748;7.102;2023-04-03T14:49:52;2.38;;;1.10;;
32445;SDS011;18899;50.748;7.102;2023-04-03T14:52:26;3.63;;;1.02;;
32445;SDS011;18899;50.748;7.102;2023-04-03T14:54:57;2.75;;;1.00;;
32445;SDS011;18899;50.748;7.102;2023-04-03T14:57:24;3.53;;;0.98;;
32445;SDS011;18899;50.748;7.102;2023-04-03T14:59:52;2.40;;;1.02;;
32445;SDS011;18899;50.748;7.102;2023-04-03T15:04:49;4.55;;;0.90;;
32445;SDS011;18899;50.748;7.102;2023-04-03T15:07:15;3.90;;;1.13;;
32445;SDS011;18899;50.748;7.102;2023-04-03T15:09:41;3.90;;;1.38;;
32445;SDS011;18899;50.748;7.102;2023-04-03T15:12:07;2.83;;;1.20;;
32445;SDS011;18899;50.748;7.102;2023-04-03T15:14:33;4.95;;;1.35;;
32445;SDS011;18899;50.748;7.102;2023-04-03T15:16:59;2.97;;;1.13;;
32445;SDS011;18899;50.748;7.102;2023-04-03T15:19:24;2.53;;;0.90;;
32445;SDS011;18899;50.748;7.102;2023-04-03T15:21:50;1.23;;;0.70;;
32445;SDS011;18899;50.748;7.102;2023-04-03T15:24:16;7.75;;;1.20;;
32445;SDS011;18899;50.748;7.102;2023-04-03T15:26:41;2.25;;;0.90;;
32445;SDS011;18899;50.748;7.102;2023-04-03T15:29:07;2.97;;;1.30;;
32445;SDS011;18899;50.748;7.102;2023-04-03T15:31:33;4.07;;;1.02;;
32445;SDS011;18899;50.748;7.102;2023-04-03T15:33:58;1.40;;;0.90;;
32445;SDS011;18899;50.748;7.102;2023-04-03T15:36:24;2.45;;;0.93;;
32445;SDS011;18899;50.748;7.102;2023-04-03T15:38:49;6.57;;;1.10;;
32445;SDS011;18899;50.748;7.102;2023-04-03T15:41:15;4.82;;;1.65;;
32445;SDS011;18899;50.748;7.102;2023-04-03T15:43:41;3.03;;;1.00;;
32445;SDS011;18899;50.748;7.102;2023-04-03T15:46:06;2.42;;;0.98;;
32445;SDS011;18899;50.748;7.102;2023-04-03T15:48:32;3.42;;;1.27;;
32445;SDS011;18899;50.748;7.102;2023-04-03T15:50:59;2.63;;;1.08;;
32445;SDS011;18899;50.748;7.102;2023-04-03T15:53:25;3.42;;;1.00;;
32445;SDS011;18899;50.748;7.102;2023-04-03T15:55:51;2.25;;;1.02;;
32445;SDS011;18899;50.748;7.102;2023-04-03T15:58:16;3.53;;;1.20;;
32445;SDS011;18899;50.748;7.102;2023-04-03T16:00:42;3.53;;;1.48;;
32445;SDS011;18899;50.748;7.102;2023-04-03T16:03:09;3.05;;;1.45;;
32445;SDS011;18899;50.748;7.102;2023-04-03T16:05:46;8.27;;;1.50;;
32445;SDS011;18899;50.748;7.102;2023-04-03T16:08:12;4.82;;;1.23;;
32445;SDS011;18899;50.748;7.102;2023-04-03T16:10:39;7.20;;;1.08;;
32445;SDS011;18899;50.748;7.102;2023-04-03T16:13:05;3.92;;;1.25;;
32445;SDS011;18899;50.748;7.102;2023-04-03T16:15:31;4.07;;;1.27;;
32445;SDS011;18899;50.748;7.102;2023-04-03T16:17:57;3.17;;;0.90;;
32445;SDS011;18899;50.748;7.102;2023-04-03T16:20:24;2.55;;;0.90;;
32445;SDS011;18899;50.748;7.102;2023-04-03T16:22:50;2.40;;;0.82;;
32445;SDS011;18899;50.748;7.102;2023-04-03T16:25:16;3.05;;;1.30;;
32445;SDS011;18899;50.748;7.102;2023-04-03T16:27:42;3.13;;;1.10;;
32445;SDS011;18899;50.748;7.102;2023-04-03T16:30:09;4.45;;;0.90;;
32445;SDS011;18899;50.748;7.102;2023-04-03T16:32:35;1.85;;;0.80;;
32445;SDS011;18899;50.748;7.102;2023-04-03T16:35:03;3.70;;;1.10;;
32445;SDS011;18899;50.748;7.102;2023-04-03T16:37:29;2.17;;;1.05;;
32445;SDS011;18899;50.748;7.102;2023-04-03T16:39:55;2.00;;;0.90;;
32445;SDS011;18899;50.748;7.102;2023-04-03T16:42:21;2.63;;;0.80;;